Main page
METAR-TAF:

METAR-TAF

Airports :

Bristol Airport

Bristol, England

latitude: 51-23N, longitude: 002-43W, elevation: 189 m

Current weather observation

The report was made 27 minutes ago, at 22:50 UTC
Wind 7 kt from the East
Temperature 14°C
Humidity 67%
Pressure 1001 hPa
Visibility 10 km or more

METAR: EGGD 222250Z AUTO 10007KT 9999 NCD 14/08 Q1001

Time: 00:17 (23:17 UTC)

Forecast

The report was made 6 hours and 21 minutes ago, at 16:56 UTC
Forecast valid from 22 at 18 UTC to 23 at 18 UTC
Wind 10 kt from the Southeast
Visibility 10 km or more
no clouds below 1500 m and no cumulonimbus
Becoming
from 22 at 21 UTC to 22 at 24 UTC
Wind 6 kt from the East
Probability 30% :
Temporary
from 23 at 03 UTC to 23 at 08 UTC
Visibility: 8000 m

TAF: EGGD 221656Z 2218/2318 14010KT CAVOK BECMG 2221/2224 08006KT PROB30 TEMPO 2303/2308 8000

Weather observations and forecasts of more than 4000 airports (METAR and TAF reports).

The available stations are represented by yellow and red dots on the map.

Hover mouse over dot to see the name of the station.

Then click to see weather observations and forecasts.

To change the map : click on the green buttons with a black cross to zoom in, on the green button with a dash to zoom out, or on the green arrows for adjacent maps.


METAR-TAF: